Terminal Aerodrome Forecast
Issued by NWS Blacksburg, VA

Home | Current Version | Previous Version | Text Only | Print | Product List | Glossary On
Versions: 1 2 3 4 5 6 7 8 9 10 11 12 13 14 15 16 17 18 19 20 21 22 23 24 25
621
FTUS41 KRNK 111120
TAFLYH
TAF
KLYH 111120Z 1112/1212 27008G16KT P6SM SKC
     FM111500 29010G20KT P6SM SKC
     FM112300 29007KT P6SM SKC
     FM120600 VRB04KT P6SM SCT040 BKN120=

USA.gov is the U.S. government's official web portal to all federal, state and local government web resources and services.